sensor_id;sensor_type;location;lat;lon;timestamp;pressure;altitude;pressure_sealevel;temperature;humidity
32873;BME280;19224;52.462;16.898;2023-05-02T00:01:22;99951.03;;;13.63;62.57
32873;BME280;19224;52.462;16.898;2023-05-02T00:03:53;99946.97;;;13.63;63.00
32873;BME280;19224;52.462;16.898;2023-05-02T00:06:24;99945.11;;;13.63;63.13
32873;BME280;19224;52.462;16.898;2023-05-02T00:08:54;99947.06;;;13.68;63.14
32873;BME280;19224;52.462;16.898;2023-05-02T00:11:24;99935.73;;;13.69;63.22
32873;BME280;19224;52.462;16.898;2023-05-02T00:13:54;99937.21;;;13.67;64.14
32873;BME280;19224;52.462;16.898;2023-05-02T00:16:25;99934.11;;;13.59;64.97
32873;BME280;19224;52.462;16.898;2023-05-02T00:18:55;99935.26;;;13.62;64.83
32873;BME280;19224;52.462;16.898;2023-05-02T00:21:25;99934.67;;;13.64;65.25
32873;BME280;19224;52.462;16.898;2023-05-02T00:23:57;99928.50;;;13.69;65.05
32873;BME280;19224;52.462;16.898;2023-05-02T00:26:28;99931.00;;;13.65;66.47
32873;BME280;19224;52.462;16.898;2023-05-02T00:28:59;99925.98;;;13.59;67.74
32873;BME280;19224;52.462;16.898;2023-05-02T00:31:29;99926.94;;;13.65;66.81
32873;BME280;19224;52.462;16.898;2023-05-02T00:33:59;99927.53;;;13.70;67.04
32873;BME280;19224;52.462;16.898;2023-05-02T00:36:29;99935.27;;;13.69;67.67
32873;BME280;19224;52.462;16.898;2023-05-02T00:39:00;99928.30;;;13.72;67.27
32873;BME280;19224;52.462;16.898;2023-05-02T00:41:30;99928.09;;;13.75;67.38
32873;BME280;19224;52.462;16.898;2023-05-02T00:44:00;99923.57;;;13.76;68.23
32873;BME280;19224;52.462;16.898;2023-05-02T00:46:31;99925.59;;;13.72;69.42
32873;BME280;19224;52.462;16.898;2023-05-02T00:49:01;99923.07;;;13.76;69.27
32873;BME280;19224;52.462;16.898;2023-05-02T00:51:34;99921.72;;;13.76;69.66
32873;BME280;19224;52.462;16.898;2023-05-02T00:54:05;99921.13;;;13.85;69.35
32873;BME280;19224;52.462;16.898;2023-05-02T00:56:35;99921.64;;;13.85;69.89
32873;BME280;19224;52.462;16.898;2023-05-02T00:59:08;99921.13;;;13.85;69.98
32873;BME280;19224;52.462;16.898;2023-05-02T01:02:27;99924.23;;;13.86;70.39
32873;BME280;19224;52.462;16.898;2023-05-02T01:05:27;99916.87;;;13.88;70.69
32873;BME280;19224;52.462;16.898;2023-05-02T01:08:28;99921.13;;;13.85;71.58
32873;BME280;19224;52.462;16.898;2023-05-02T01:11:10;99923.64;;;13.88;71.81
32873;BME280;19224;52.462;16.898;2023-05-02T01:13:38;99920.55;;;13.87;72.26
32873;BME280;19224;52.462;16.898;2023-05-02T01:16:11;99924.05;;;13.89;72.79
32873;BME280;19224;52.462;16.898;2023-05-02T01:18:44;99919.58;;;13.88;73.43
32873;BME280;19224;52.462;16.898;2023-05-02T01:21:16;99919.19;;;13.87;74.54
32873;BME280;19224;52.462;16.898;2023-05-02T01:24:16;99924.91;;;13.90;74.93
32873;BME280;19224;52.462;16.898;2023-05-02T01:29:51;99919.20;;;13.94;75.25
32873;BME280;19224;52.462;16.898;2023-05-02T01:32:23;99921.91;;;13.94;76.03
32873;BME280;19224;52.462;16.898;2023-05-02T01:34:56;99929.27;;;13.92;77.04
32873;BME280;19224;52.462;16.898;2023-05-02T01:37:28;99929.27;;;13.92;77.45
32873;BME280;19224;52.462;16.898;2023-05-02T01:40:01;99920.25;;;13.92;77.63
32873;BME280;19224;52.462;16.898;2023-05-02T01:42:33;99927.52;;;13.91;78.81
32873;BME280;19224;52.462;16.898;2023-05-02T01:45:07;99917.75;;;13.89;79.33
32873;BME280;19224;52.462;16.898;2023-05-02T01:47:40;99920.95;;;13.81;80.76
32873;BME280;19224;52.462;16.898;2023-05-02T01:50:16;99929.05;;;13.88;79.80
32873;BME280;19224;52.462;16.898;2023-05-02T01:52:49;99924.44;;;13.90;79.99
32873;BME280;19224;52.462;16.898;2023-05-02T01:55:21;99919.40;;;13.84;82.08
32873;BME280;19224;52.462;16.898;2023-05-02T01:57:54;99922.52;;;13.78;83.31
32873;BME280;19224;52.462;16.898;2023-05-02T02:00:25;99921.16;;;13.71;83.31
32873;BME280;19224;52.462;16.898;2023-05-02T02:02:59;99922.69;;;13.75;83.70
32873;BME280;19224;52.462;16.898;2023-05-02T02:05:32;99924.81;;;13.84;82.17
32873;BME280;19224;52.462;16.898;2023-05-02T02:08:03;99918.64;;;13.89;81.83
32873;BME280;19224;52.462;16.898;2023-05-02T02:10:39;99913.41;;;13.93;81.62
32873;BME280;19224;52.462;16.898;2023-05-02T02:13:17;99911.66;;;13.92;81.76
32873;BME280;19224;52.462;16.898;2023-05-02T02:15:50;99909.92;;;13.91;82.18
32873;BME280;19224;52.462;16.898;2023-05-02T02:18:23;99920.55;;;13.87;83.09
32873;BME280;19224;52.462;16.898;2023-05-02T02:20:55;99919.19;;;13.87;83.32
32873;BME280;19224;52.462;16.898;2023-05-02T02:23:29;99928.29;;;13.93;82.84
32873;BME280;19224;52.462;16.898;2023-05-02T02:26:02;99927.91;;;13.92;83.47
32873;BME280;19224;52.462;16.898;2023-05-02T02:28:34;99927.14;;;13.90;83.40
32873;BME280;19224;52.462;16.898;2023-05-02T02:31:05;99933.11;;;13.88;83.75
32873;BME280;19224;52.462;16.898;2023-05-02T02:33:36;99938.36;;;13.91;83.37
32873;BME280;19224;52.462;16.898;2023-05-02T02:42:44;99945.62;;;13.84;83.94
32873;BME280;19224;52.462;16.898;2023-05-02T02:51:12;99947.84;;;13.70;86.05
32873;BME280;19224;52.462;16.898;2023-05-02T02:56:54;99962.90;;;13.74;85.74
32873;BME280;19224;52.462;16.898;2023-05-02T02:59:32;99972.56;;;13.64;87.06
32873;BME280;19224;52.462;16.898;2023-05-02T03:02:11;99972.25;;;13.48;89.25
32873;BME280;19224;52.462;16.898;2023-05-02T03:04:42;99970.33;;;13.43;90.62
32873;BME280;19224;52.462;16.898;2023-05-02T03:07:14;99967.55;;;13.58;88.46
32873;BME280;19224;52.462;16.898;2023-05-02T03:09:46;99971.32;;;13.63;88.17
32873;BME280;19224;52.462;16.898;2023-05-02T03:12:17;99980.30;;;13.63;88.37
32873;BME280;19224;52.462;16.898;2023-05-02T03:14:47;99977.79;;;13.60;88.68
32873;BME280;19224;52.462;16.898;2023-05-02T03:17:18;99975.47;;;13.61;88.60
32873;BME280;19224;52.462;16.898;2023-05-02T03:19:48;99973.73;;;13.60;88.84
32873;BME280;19224;52.462;16.898;2023-05-02T03:22:18;99974.88;;;13.63;88.54
32873;BME280;19224;52.462;16.898;2023-05-02T03:24:49;99971.98;;;13.66;88.30
32873;BME280;19224;52.462;16.898;2023-05-02T03:27:19;99980.89;;;13.68;88.40
32873;BME280;19224;52.462;16.898;2023-05-02T03:29:49;99971.99;;;13.59;89.21
32873;BME280;19224;52.462;16.898;2023-05-02T03:32:19;99967.73;;;13.62;88.95
32873;BME280;19224;52.462;16.898;2023-05-02T03:34:50;99975.36;;;13.70;88.71
32873;BME280;19224;52.462;16.898;2023-05-02T03:37:20;99977.02;;;13.72;88.45
32873;BME280;19224;52.462;16.898;2023-05-02T03:39:50;99988.53;;;13.76;88.64
32873;BME280;19224;52.462;16.898;2023-05-02T03:42:21;99996.92;;;13.64;89.85
32873;BME280;19224;52.462;16.898;2023-05-02T03:44:54;100000.41;;;13.59;90.69
32873;BME280;19224;52.462;16.898;2023-05-02T03:47:25;100005.98;;;13.49;92.36
32873;BME280;19224;52.462;16.898;2023-05-02T03:49:55;100005.50;;;13.43;92.69
32873;BME280;19224;52.462;16.898;2023-05-02T03:52:26;100005.80;;;13.45;92.67
32873;BME280;19224;52.462;16.898;2023-05-02T03:54:57;100014.41;;;13.52;91.96
32873;BME280;19224;52.462;16.898;2023-05-02T03:57:31;100019.52;;;13.49;93.03
32873;BME280;19224;52.462;16.898;2023-05-02T04:00:01;100027.99;;;13.43;93.92
32873;BME280;19224;52.462;16.898;2023-05-02T04:02:32;100035.53;;;13.38;94.07
32873;BME280;19224;52.462;16.898;2023-05-02T04:05:03;100036.19;;;13.35;94.23
32873;BME280;19224;52.462;16.898;2023-05-02T04:07:34;100045.92;;;13.30;94.71
32873;BME280;19224;52.462;16.898;2023-05-02T04:10:06;100056.86;;;13.29;94.60
32873;BME280;19224;52.462;16.898;2023-05-02T04:12:38;100061.88;;;13.35;94.68
32873;BME280;19224;52.462;16.898;2023-05-02T04:15:09;100071.74;;;13.36;95.67
32873;BME280;19224;52.462;16.898;2023-05-02T04:17:40;100075.52;;;13.33;95.97
32873;BME280;19224;52.462;16.898;2023-05-02T04:20:11;100075.52;;;13.33;96.43
32873;BME280;19224;52.462;16.898;2023-05-02T04:22:41;100078.11;;;13.28;97.43
32873;BME280;19224;52.462;16.898;2023-05-02T04:25:12;100081.75;;;13.27;98.24
32873;BME280;19224;52.462;16.898;2023-05-02T04:27:43;100077.57;;;13.21;98.84
32873;BME280;19224;52.462;16.898;2023-05-02T04:30:14;100084.83;;;13.21;98.96
32873;BME280;19224;52.462;16.898;2023-05-02T04:32:44;100083.56;;;13.19;99.92
32873;BME280;19224;52.462;16.898;2023-05-02T04:35:14;100085.22;;;13.22;99.78
32873;BME280;19224;52.462;16.898;2023-05-02T04:37:45;100081.63;;;13.21;97.81
32873;BME280;19224;52.462;16.898;2023-05-02T04:40:16;100079.16;;;13.25;96.90
32873;BME280;19224;52.462;16.898;2023-05-02T04:42:46;100078.96;;;13.28;95.34
32873;BME280;19224;52.462;16.898;2023-05-02T04:45:17;100072.24;;;13.35;94.90
32873;BME280;19224;52.462;16.898;2023-05-02T04:47:47;100077.07;;;13.37;94.03
32873;BME280;19224;52.462;16.898;2023-05-02T04:50:18;100074.17;;;13.40;92.46
32873;BME280;19224;52.462;16.898;2023-05-02T04:52:48;100082.21;;;13.42;91.46
32873;BME280;19224;52.462;16.898;2023-05-02T04:55:19;100081.25;;;13.43;91.49
32873;BME280;19224;52.462;16.898;2023-05-02T04:57:51;100081.55;;;13.52;91.25
32873;BME280;19224;52.462;16.898;2023-05-02T05:00:21;100085.92;;;13.55;90.68
32873;BME280;19224;52.462;16.898;2023-05-02T05:02:51;100084.68;;;13.60;90.04
32873;BME280;19224;52.462;16.898;2023-05-02T05:05:22;100078.69;;;13.55;91.31
32873;BME280;19224;52.462;16.898;2023-05-02T05:07:52;100079.45;;;13.64;90.77
32873;BME280;19224;52.462;16.898;2023-05-02T05:10:22;100081.42;;;13.69;90.65
32873;BME280;19224;52.462;16.898;2023-05-02T05:12:53;100082.30;;;13.77;91.05
32873;BME280;19224;52.462;16.898;2023-05-02T05:15:24;100086.47;;;13.82;90.13
32873;BME280;19224;52.462;16.898;2023-05-02T05:17:55;100083.77;;;13.82;90.37
32873;BME280;19224;52.462;16.898;2023-05-02T05:20:26;100085.59;;;13.82;89.50
32873;BME280;19224;52.462;16.898;2023-05-02T05:22:56;100086.27;;;13.85;90.18
32873;BME280;19224;52.462;16.898;2023-05-02T05:25:27;100088.13;;;13.92;94.24
32873;BME280;19224;52.462;16.898;2023-05-02T05:28:00;100095.38;;;13.98;95.18
32873;BME280;19224;52.462;16.898;2023-05-02T05:30:30;100086.59;;;14.02;95.98
32873;BME280;19224;52.462;16.898;2023-05-02T05:33:00;100088.81;;;14.09;97.42
32873;BME280;19224;52.462;16.898;2023-05-02T05:35:31;100083.11;;;14.14;97.94
32873;BME280;19224;52.462;16.898;2023-05-02T05:38:01;100075.89;;;14.21;96.23
32873;BME280;19224;52.462;16.898;2023-05-02T05:40:31;100080.84;;;14.22;98.53
32873;BME280;19224;52.462;16.898;2023-05-02T05:43:02;100080.83;;;14.36;98.27
32873;BME280;19224;52.462;16.898;2023-05-02T05:45:32;100083.84;;;14.45;99.04
32873;BME280;19224;52.462;16.898;2023-05-02T05:48:02;100085.38;;;14.42;100.00
32873;BME280;19224;52.462;16.898;2023-05-02T05:50:32;100084.79;;;14.51;100.00
32873;BME280;19224;52.462;16.898;2023-05-02T05:53:03;100089.83;;;14.50;100.00
32873;BME280;19224;52.462;16.898;2023-05-02T05:55:34;100097.16;;;14.55;100.00
32873;BME280;19224;52.462;16.898;2023-05-02T05:58:06;100102.38;;;14.65;100.00
32873;BME280;19224;52.462;16.898;2023-05-02T06:00:38;100105.48;;;14.73;100.00
32873;BME280;19224;52.462;16.898;2023-05-02T06:03:08;100107.02;;;14.77;99.50
32873;BME280;19224;52.462;16.898;2023-05-02T06:05:39;100114.09;;;14.79;99.42
32873;BME280;19224;52.462;16.898;2023-05-02T06:08:09;100123.75;;;14.90;98.16
32873;BME280;19224;52.462;16.898;2023-05-02T06:10:39;100131.47;;;15.03;96.73
32873;BME280;19224;52.462;16.898;2023-05-02T06:13:10;100136.20;;;15.14;95.71
32873;BME280;19224;52.462;16.898;2023-05-02T06:15:40;100138.71;;;15.17;97.19
32873;BME280;19224;52.462;16.898;2023-05-02T06:18:10;100149.61;;;15.03;96.25
32873;BME280;19224;52.462;16.898;2023-05-02T06:20:41;100143.12;;;14.91;96.22
32873;BME280;19224;52.462;16.898;2023-05-02T06:23:11;100144.09;;;14.90;97.60
32873;BME280;19224;52.462;16.898;2023-05-02T06:25:41;100145.83;;;15.05;97.21
32873;BME280;19224;52.462;16.898;2023-05-02T06:28:12;100147.36;;;15.09;95.03
32873;BME280;19224;52.462;16.898;2023-05-02T06:30:42;100150.25;;;15.13;94.05
32873;BME280;19224;52.462;16.898;2023-05-02T06:33:15;100155.37;;;15.18;93.93
32873;BME280;19224;52.462;16.898;2023-05-02T06:35:51;100158.67;;;15.23;93.03
32873;BME280;19224;52.462;16.898;2023-05-02T06:38:22;100159.66;;;15.15;92.61
32873;BME280;19224;52.462;16.898;2023-05-02T06:40:53;100163.13;;;15.17;93.02
32873;BME280;19224;52.462;16.898;2023-05-02T06:43:29;100165.25;;;15.26;92.41
32873;BME280;19224;52.462;16.898;2023-05-02T06:45:58;100171.17;;;15.32;90.90
32873;BME280;19224;52.462;16.898;2023-05-02T06:48:29;100172.14;;;15.31;91.96
32873;BME280;19224;52.462;16.898;2023-05-02T06:51:01;100186.98;;;15.33;92.82
32873;BME280;19224;52.462;16.898;2023-05-02T06:53:32;100187.16;;;15.37;91.40
32873;BME280;19224;52.462;16.898;2023-05-02T06:56:04;100191.90;;;15.40;90.94
32873;BME280;19224;52.462;16.898;2023-05-02T06:58:34;100187.41;;;15.46;91.20
32873;BME280;19224;52.462;16.898;2023-05-02T07:01:06;100196.13;;;15.51;88.69
32873;BME280;19224;52.462;16.898;2023-05-02T07:03:36;100197.96;;;15.51;88.69
32873;BME280;19224;52.462;16.898;2023-05-02T07:06:08;100195.25;;;15.51;88.92
32873;BME280;19224;52.462;16.898;2023-05-02T07:08:40;100201.90;;;15.59;90.04
32873;BME280;19224;52.462;16.898;2023-05-02T07:11:12;100201.42;;;15.67;87.83
32873;BME280;19224;52.462;16.898;2023-05-02T07:13:43;100202.34;;;15.73;86.77
32873;BME280;19224;52.462;16.898;2023-05-02T07:16:14;100207.09;;;15.76;85.72
32873;BME280;19224;52.462;16.898;2023-05-02T07:18:51;100216.89;;;15.79;88.13
32873;BME280;19224;52.462;16.898;2023-05-02T07:21:19;100222.48;;;15.83;90.01
32873;BME280;19224;52.462;16.898;2023-05-02T07:23:51;100226.77;;;15.80;89.80
32873;BME280;19224;52.462;16.898;2023-05-02T07:26:24;100227.63;;;15.80;91.25
32873;BME280;19224;52.462;16.898;2023-05-02T07:28:57;100243.31;;;15.89;90.12
32873;BME280;19224;52.462;16.898;2023-05-02T07:31:30;100244.37;;;15.87;88.82
32873;BME280;19224;52.462;16.898;2023-05-02T07:34:00;100245.34;;;15.93;89.83
32873;BME280;19224;52.462;16.898;2023-05-02T07:36:30;100252.89;;;15.95;88.68
32873;BME280;19224;52.462;16.898;2023-05-02T07:39:01;100255.52;;;15.96;88.60
32873;BME280;19224;52.462;16.898;2023-05-02T07:41:31;100258.33;;;15.95;88.08
32873;BME280;19224;52.462;16.898;2023-05-02T07:44:01;100258.41;;;16.00;87.70
32873;BME280;19224;52.462;16.898;2023-05-02T07:46:32;100271.30;;;16.04;86.52
32873;BME280;19224;52.462;16.898;2023-05-02T07:49:02;100266.84;;;16.03;86.82
32873;BME280;19224;52.462;16.898;2023-05-02T07:51:32;100266.41;;;16.09;87.26
32873;BME280;19224;52.462;16.898;2023-05-02T07:54:02;100266.32;;;16.10;85.98
32873;BME280;19224;52.462;16.898;2023-05-02T07:56:40;100277.49;;;16.06;84.09
32873;BME280;19224;52.462;16.898;2023-05-02T07:59:15;100281.19;;;16.05;84.54
32873;BME280;19224;52.462;16.898;2023-05-02T08:01:45;100283.22;;;16.08;84.68
32873;BME280;19224;52.462;16.898;2023-05-02T08:04:16;100282.15;;;16.11;83.92
32873;BME280;19224;52.462;16.898;2023-05-02T08:06:46;100277.66;;;16.10;83.95
32873;BME280;19224;52.462;16.898;2023-05-02T08:09:20;100290.84;;;16.16;82.84
32873;BME280;19224;52.462;16.898;2023-05-02T08:11:53;100287.44;;;16.19;82.47
32873;BME280;19224;52.462;16.898;2023-05-02T08:14:25;100286.61;;;16.31;82.60
32873;BME280;19224;52.462;16.898;2023-05-02T08:16:55;100295.41;;;16.42;83.01
32873;BME280;19224;52.462;16.898;2023-05-02T08:19:26;100296.16;;;16.44;80.11
32873;BME280;19224;52.462;16.898;2023-05-02T08:21:57;100295.78;;;16.43;78.44
32873;BME280;19224;52.462;16.898;2023-05-02T08:24:28;100306.21;;;16.36;78.99
32873;BME280;19224;52.462;16.898;2023-05-02T08:26:59;100315.02;;;16.47;78.33
32873;BME280;19224;52.462;16.898;2023-05-02T08:29:31;100320.14;;;16.51;75.87
32873;BME280;19224;52.462;16.898;2023-05-02T08:32:02;100329.50;;;16.60;77.17
32873;BME280;19224;52.462;16.898;2023-05-02T08:34:32;100327.64;;;16.60;77.24
32873;BME280;19224;52.462;16.898;2023-05-02T08:37:08;100323.62;;;16.66;77.61
32873;BME280;19224;52.462;16.898;2023-05-02T08:39:40;100329.48;;;16.67;76.88
32873;BME280;19224;52.462;16.898;2023-05-02T08:42:10;100320.66;;;16.76;77.21
32873;BME280;19224;52.462;16.898;2023-05-02T08:44:42;100326.78;;;16.92;76.73
32873;BME280;19224;52.462;16.898;2023-05-02T08:47:14;100317.64;;;16.93;75.98
32873;BME280;19224;52.462;16.898;2023-05-02T08:49:45;100321.67;;;17.12;76.91
32873;BME280;19224;52.462;16.898;2023-05-02T08:52:18;100321.12;;;17.19;76.45
32873;BME280;19224;52.462;16.898;2023-05-02T08:54:54;100328.69;;;17.34;74.78
32873;BME280;19224;52.462;16.898;2023-05-02T08:57:21;100326.05;;;17.39;73.42
32873;BME280;19224;52.462;16.898;2023-05-02T08:59:51;100334.36;;;17.43;72.23
32873;BME280;19224;52.462;16.898;2023-05-02T09:02:59;100324.02;;;17.48;72.50
32873;BME280;19224;52.462;16.898;2023-05-02T09:05:29;100334.78;;;17.62;67.46
32873;BME280;19224;52.462;16.898;2023-05-02T09:08:03;100347.46;;;17.69;59.45
32873;BME280;19224;52.462;16.898;2023-05-02T09:10:35;100333.93;;;17.62;60.99
32873;BME280;19224;52.462;16.898;2023-05-02T09:13:32;100346.43;;;17.64;61.76
32873;BME280;19224;52.462;16.898;2023-05-02T09:16:09;100351.22;;;17.73;61.40
32873;BME280;19224;52.462;16.898;2023-05-02T09:18:48;100353.09;;;17.73;61.00
32873;BME280;19224;52.462;16.898;2023-05-02T09:21:25;100341.24;;;17.79;55.58
32873;BME280;19224;52.462;16.898;2023-05-02T09:23:58;100356.55;;;17.93;54.34
32873;BME280;19224;52.462;16.898;2023-05-02T09:26:30;100351.85;;;17.89;56.26
32873;BME280;19224;52.462;16.898;2023-05-02T09:29:06;100358.57;;;17.96;55.81
32873;BME280;19224;52.462;16.898;2023-05-02T09:31:37;100360.01;;;18.07;53.02
32873;BME280;19224;52.462;16.898;2023-05-02T09:34:17;100357.59;;;18.15;52.76
32873;BME280;19224;52.462;16.898;2023-05-02T09:36:54;100372.96;;;18.16;53.65
32873;BME280;19224;52.462;16.898;2023-05-02T09:39:27;100371.16;;;18.22;53.54
32873;BME280;19224;52.462;16.898;2023-05-02T09:41:58;100365.94;;;18.25;53.83
32873;BME280;19224;52.462;16.898;2023-05-02T09:44:37;100361.16;;;18.46;54.06
32873;BME280;19224;52.462;16.898;2023-05-02T09:47:09;100374.08;;;18.50;54.49
32873;BME280;19224;52.462;16.898;2023-05-02T09:49:47;100382.50;;;18.52;53.18
32873;BME280;19224;52.462;16.898;2023-05-02T09:52:19;100372.52;;;18.64;52.19
32873;BME280;19224;52.462;16.898;2023-05-02T09:54:50;100387.39;;;18.65;54.21
32873;BME280;19224;52.462;16.898;2023-05-02T09:57:21;100377.52;;;18.75;54.60
32873;BME280;19224;52.462;16.898;2023-05-02T09:59:58;100387.36;;;18.83;53.35
32873;BME280;19224;52.462;16.898;2023-05-02T10:02:30;100380.01;;;18.73;52.45
32873;BME280;19224;52.462;16.898;2023-05-02T10:05:04;100394.41;;;18.75;51.52
32873;BME280;19224;52.462;16.898;2023-05-02T10:07:38;100387.62;;;18.86;52.27
32873;BME280;19224;52.462;16.898;2023-05-02T10:10:12;100391.64;;;19.04;51.08
32873;BME280;19224;52.462;16.898;2023-05-02T10:12:43;100401.55;;;18.99;51.09
32873;BME280;19224;52.462;16.898;2023-05-02T10:15:16;100398.52;;;18.80;50.95
32873;BME280;19224;52.462;16.898;2023-05-02T10:17:50;100404.73;;;18.82;52.05
32873;BME280;19224;52.462;16.898;2023-05-02T10:20:23;100399.94;;;18.91;52.59
32873;BME280;19224;52.462;16.898;2023-05-02T10:22:55;100407.15;;;18.98;52.17
32873;BME280;19224;52.462;16.898;2023-05-02T10:25:28;100404.19;;;18.77;51.51
32873;BME280;19224;52.462;16.898;2023-05-02T10:27:59;100408.45;;;18.81;51.54
32873;BME280;19224;52.462;16.898;2023-05-02T10:30:30;100409.27;;;18.76;51.59
32873;BME280;19224;52.462;16.898;2023-05-02T10:33:06;100407.45;;;18.82;50.84
32873;BME280;19224;52.462;16.898;2023-05-02T10:35:57;100434.65;;;18.84;51.27
32873;BME280;19224;52.462;16.898;2023-05-02T10:38:27;100419.07;;;18.73;50.63
32873;BME280;19224;52.462;16.898;2023-05-02T10:41:08;100427.28;;;18.79;50.80
32873;BME280;19224;52.462;16.898;2023-05-02T10:43:38;100427.39;;;18.72;50.22
32873;BME280;19224;52.462;16.898;2023-05-02T10:46:32;100424.58;;;18.84;51.07
32873;BME280;19224;52.462;16.898;2023-05-02T10:49:06;100438.86;;;19.11;50.81
32873;BME280;19224;52.462;16.898;2023-05-02T10:51:39;100434.27;;;19.17;50.23
32873;BME280;19224;52.462;16.898;2023-05-02T10:54:29;100425.86;;;18.91;50.94
32873;BME280;19224;52.462;16.898;2023-05-02T10:57:07;100436.81;;;18.97;52.56
32873;BME280;19224;52.462;16.898;2023-05-02T10:59:41;100430.42;;;19.14;51.19
32873;BME280;19224;52.462;16.898;2023-05-02T11:05:07;100437.89;;;19.63;47.13
32873;BME280;19224;52.462;16.898;2023-05-02T11:07:37;100439.25;;;19.63;48.10
32873;BME280;19224;52.462;16.898;2023-05-02T11:12:54;100436.63;;;19.45;50.72
32873;BME280;19224;52.462;16.898;2023-05-02T11:18:10;100452.67;;;19.71;48.51
32873;BME280;19224;52.462;16.898;2023-05-02T11:20:43;100446.98;;;19.69;49.02
32873;BME280;19224;52.462;16.898;2023-05-02T11:23:22;100437.28;;;19.87;48.88
32873;BME280;19224;52.462;16.898;2023-05-02T11:25:57;100455.88;;;20.11;48.38
32873;BME280;19224;52.462;16.898;2023-05-02T11:28:47;100453.99;;;20.11;47.81
32873;BME280;19224;52.462;16.898;2023-05-02T11:34:03;100446.41;;;20.26;46.29
32873;BME280;19224;52.462;16.898;2023-05-02T11:36:35;100468.40;;;20.30;45.11
32873;BME280;19224;52.462;16.898;2023-05-02T11:39:17;100477.02;;;19.58;46.98
32873;BME280;19224;52.462;16.898;2023-05-02T11:41:42;100466.63;;;19.90;46.63
32873;BME280;19224;52.462;16.898;2023-05-02T11:44:16;100488.17;;;20.06;45.33
32873;BME280;19224;52.462;16.898;2023-05-02T11:46:46;100495.39;;;20.29;45.87
32873;BME280;19224;52.462;16.898;2023-05-02T11:49:17;100479.23;;;20.09;45.08
32873;BME280;19224;52.462;16.898;2023-05-02T11:51:48;100483.71;;;20.16;45.83
32873;BME280;19224;52.462;16.898;2023-05-02T11:54:22;100496.76;;;20.23;45.95
32873;BME280;19224;52.462;16.898;2023-05-02T11:56:55;100489.13;;;19.94;45.81
32873;BME280;19224;52.462;16.898;2023-05-02T11:59:27;100487.18;;;20.12;46.58
32873;BME280;19224;52.462;16.898;2023-05-02T12:01:58;100499.86;;;20.19;46.55
32873;BME280;19224;52.462;16.898;2023-05-02T12:04:30;100495.39;;;20.12;46.50
32873;BME280;19224;52.462;16.898;2023-05-02T12:07:00;100497.80;;;19.82;46.08
32873;BME280;19224;52.462;16.898;2023-05-02T12:09:31;100506.24;;;19.74;47.13
32873;BME280;19224;52.462;16.898;2023-05-02T12:12:03;100504.38;;;19.69;47.25
32873;BME280;19224;52.462;16.898;2023-05-02T12:14:33;100508.08;;;19.57;47.88
32873;BME280;19224;52.462;16.898;2023-05-02T12:17:08;100509.07;;;19.56;48.67
32873;BME280;19224;52.462;16.898;2023-05-02T12:19:50;100517.04;;;19.64;48.73
32873;BME280;19224;52.462;16.898;2023-05-02T12:22:23;100528.68;;;19.27;51.47
32873;BME280;19224;52.462;16.898;2023-05-02T12:24:54;100526.55;;;19.48;52.72
32873;BME280;19224;52.462;16.898;2023-05-02T12:27:27;100528.58;;;19.57;53.18
32873;BME280;19224;52.462;16.898;2023-05-02T12:29:57;100538.78;;;19.32;54.81
32873;BME280;19224;52.462;16.898;2023-05-02T12:32:33;100547.77;;;19.45;54.83
32873;BME280;19224;52.462;16.898;2023-05-02T12:35:18;100543.75;;;19.66;53.62
32873;BME280;19224;52.462;16.898;2023-05-02T12:37:37;100547.98;;;19.76;52.60
32873;BME280;19224;52.462;16.898;2023-05-02T12:40:15;100540.95;;;19.84;51.38
32873;BME280;19224;52.462;16.898;2023-05-02T12:43:04;100548.91;;;19.87;53.22
32873;BME280;19224;52.462;16.898;2023-05-02T12:45:36;100540.77;;;20.04;52.12
32873;BME280;19224;52.462;16.898;2023-05-02T12:48:27;100563.92;;;19.82;55.09
32873;BME280;19224;52.462;16.898;2023-05-02T12:50:57;100546.94;;;19.50;57.83
32873;BME280;19224;52.462;16.898;2023-05-02T12:53:44;100556.72;;;19.81;56.34
32873;BME280;19224;52.462;16.898;2023-05-02T12:56:16;100547.74;;;19.68;56.88
32873;BME280;19224;52.462;16.898;2023-05-02T12:58:47;100557.25;;;19.52;59.99
32873;BME280;19224;52.462;16.898;2023-05-02T13:01:18;100566.28;;;18.87;62.99
32873;BME280;19224;52.462;16.898;2023-05-02T13:03:50;100563.40;;;18.22;66.73
32873;BME280;19224;52.462;16.898;2023-05-02T13:06:20;100579.44;;;18.39;67.51
32873;BME280;19224;52.462;16.898;2023-05-02T13:08:50;100597.34;;;18.31;68.90
32873;BME280;19224;52.462;16.898;2023-05-02T13:11:21;100569.66;;;18.42;68.33
32873;BME280;19224;52.462;16.898;2023-05-02T13:13:53;100572.87;;;18.04;69.75
32873;BME280;19224;52.462;16.898;2023-05-02T13:16:23;100573.13;;;18.39;68.72
32873;BME280;19224;52.462;16.898;2023-05-02T13:18:54;100607.32;;;18.37;67.27
32873;BME280;19224;52.462;16.898;2023-05-02T13:21:24;100597.02;;;18.16;68.97
32873;BME280;19224;52.462;16.898;2023-05-02T13:23:54;100588.17;;;18.32;66.95
32873;BME280;19224;52.462;16.898;2023-05-02T13:26:33;100599.61;;;18.37;66.30
32873;BME280;19224;52.462;16.898;2023-05-02T13:29:00;100596.28;;;18.51;65.99
32873;BME280;19224;52.462;16.898;2023-05-02T13:31:44;100610.75;;;18.89;65.70
32873;BME280;19224;52.462;16.898;2023-05-02T13:34:14;100606.48;;;18.67;66.12
32873;BME280;19224;52.462;16.898;2023-05-02T13:37:03;100621.61;;;18.21;67.18
32873;BME280;19224;52.462;16.898;2023-05-02T13:39:33;100649.64;;;18.30;65.69
32873;BME280;19224;52.462;16.898;2023-05-02T13:42:04;100618.08;;;18.33;64.32